createdAt,value
2018-09-26T00:01:17.048Z,11.10
2018-09-26T00:09:43.125Z,11.60
2018-09-26T00:17:05.697Z,11.10
2018-09-26T00:19:33.411Z,11.30
2018-09-26T00:22:01.425Z,11.10
2018-09-26T00:29:24.311Z,11.40
2018-09-26T00:31:51.787Z,11.10
2018-09-26T00:46:38.201Z,11.20
2018-09-26T00:49:06.226Z,11.60
2018-09-26T00:51:33.746Z,11.20
2018-09-26T00:54:01.284Z,11.10
2018-09-26T00:56:29.365Z,10.90
2018-09-26T00:58:56.890Z,10.80
2018-09-26T01:01:24.373Z,10.80
2018-09-26T01:03:51.975Z,10.80
2018-09-26T01:06:19.624Z,10.80
2018-09-26T01:08:47.204Z,10.90
2018-09-26T01:16:09.592Z,9.90
2018-09-26T01:18:37.101Z,10.50
2018-09-26T01:23:32.094Z,10.20
2018-09-26T01:28:27.011Z,10.50
2018-09-26T01:30:54.676Z,10.60
2018-09-26T01:33:22.166Z,10.20
2018-09-26T01:35:50.321Z,10.30
2018-09-26T01:38:17.906Z,10.40
2018-09-26T01:40:46.043Z,10.30
2018-09-26T01:43:14.577Z,10.10
2018-09-26T01:45:42.070Z,10.20
2018-09-26T01:48:10.340Z,10.70
2018-09-26T01:53:05.494Z,10.30
2018-09-26T01:55:33.584Z,9.90
2018-09-26T01:58:01.155Z,10.20
2018-09-26T02:00:28.784Z,10.20
2018-09-26T02:02:56.373Z,10.40
2018-09-26T02:05:23.905Z,10.30
2018-09-26T02:07:51.496Z,10.20
2018-09-26T02:10:19.016Z,10.50
2018-09-26T02:12:46.579Z,10.50
2018-09-26T02:15:14.212Z,10.40
2018-09-26T02:17:41.732Z,10.10
2018-09-26T02:22:37.451Z,10.10
2018-09-26T02:25:05.801Z,9.70
2018-09-26T02:27:33.533Z,9.80
2018-09-26T02:30:01.164Z,9.90
2018-09-26T02:32:28.904Z,10.10
2018-09-26T02:34:56.433Z,10.50
2018-09-26T02:37:23.937Z,9.80
2018-09-26T02:39:51.493Z,10.00
2018-09-26T02:42:19.638Z,9.60
2018-09-26T02:44:47.244Z,10.00
2018-09-26T02:49:43.122Z,10.00
2018-09-26T02:57:05.699Z,9.40
2018-09-26T02:59:33.788Z,9.40
2018-09-26T03:04:28.876Z,9.30
2018-09-26T03:06:56.512Z,9.50
2018-09-26T03:09:24.015Z,9.40
2018-09-26T03:14:19.031Z,10.10
2018-09-26T03:16:46.568Z,9.10
2018-09-26T03:21:41.532Z,9.40
2018-09-26T03:24:09.024Z,9.20
2018-09-26T03:26:36.525Z,9.50
2018-09-26T03:29:03.975Z,9.60
2018-09-26T03:31:31.571Z,9.50
2018-09-26T03:33:59.024Z,9.80
2018-09-26T03:36:26.609Z,9.40
2018-09-26T03:46:17.383Z,9.70
2018-09-26T03:48:44.852Z,9.00
2018-09-26T03:53:40.725Z,9.20
2018-09-26T03:56:08.236Z,9.10
2018-09-26T03:58:35.881Z,9.30
2018-09-26T04:01:03.547Z,9.40
2018-09-26T04:05:58.393Z,9.30
2018-09-26T04:08:26.928Z,8.90
2018-09-26T04:10:54.483Z,9.60
2018-09-26T04:13:22.103Z,9.40
2018-09-26T04:15:54.717Z,9.60
2018-09-26T04:18:23.828Z,9.20
2018-09-26T04:20:51.770Z,9.30
2018-09-26T04:23:19.420Z,9.10
2018-09-26T04:25:46.892Z,9.20
2018-09-26T04:30:41.984Z,9.70
2018-09-26T04:35:37.433Z,9.70
2018-09-26T04:38:05.395Z,9.90
2018-09-26T04:43:00.346Z,10.00
2018-09-26T04:45:29.017Z,9.70
2018-09-26T04:52:51.385Z,9.70
2018-09-26T04:57:46.570Z,9.60
2018-09-26T05:02:43.389Z,9.10
2018-09-26T05:07:38.544Z,9.00
2018-09-26T05:15:01.531Z,9.20
2018-09-26T05:17:29.071Z,8.50
2018-09-26T05:19:56.826Z,8.80
2018-09-26T05:22:24.471Z,9.20
2018-09-26T05:24:51.990Z,9.60
2018-09-26T05:37:09.325Z,9.20
2018-09-26T05:39:37.927Z,8.90
2018-09-26T05:49:28.845Z,8.80
2018-09-26T05:56:51.252Z,9.20
2018-09-26T06:01:46.450Z,9.50
2018-09-26T06:06:41.495Z,9.40
2018-09-26T06:09:11.470Z,9.40
2018-09-26T06:16:35.399Z,9.80
2018-09-26T06:19:03.015Z,10.10
2018-09-26T06:21:30.452Z,9.90
2018-09-26T06:23:57.933Z,9.40
2018-09-26T06:26:25.403Z,10.10
2018-09-26T06:28:53.613Z,9.80
2018-09-26T06:33:48.454Z,10.30
2018-09-26T06:43:38.488Z,11.20
2018-09-26T06:46:06.405Z,10.10
2018-09-26T06:48:33.964Z,10.80
2018-09-26T06:53:28.878Z,10.70
2018-09-26T06:55:56.535Z,10.80
2018-09-26T06:58:24.126Z,11.00
2018-09-26T07:00:51.703Z,11.10
2018-09-26T07:03:19.316Z,10.70
2018-09-26T07:07:11.290Z,10.90
2018-09-26T07:09:38.886Z,11.40
2018-09-26T07:12:06.650Z,10.80
2018-09-26T07:17:01.628Z,11.10
2018-09-26T07:19:29.143Z,11.20
2018-09-26T07:26:51.494Z,11.00
2018-09-26T07:31:46.584Z,11.50
2018-09-26T07:34:14.238Z,11.50
2018-09-26T07:36:41.799Z,12.20
2018-09-26T07:39:10.994Z,12.00
2018-09-26T07:41:39.422Z,11.70
2018-09-26T07:44:07.238Z,12.40
2018-09-26T07:46:34.770Z,12.30
2018-09-26T07:49:02.288Z,12.10
2018-09-26T07:53:57.491Z,12.50
2018-09-26T07:56:25.116Z,12.90
2018-09-26T07:58:52.677Z,12.60
2018-09-26T08:01:20.316Z,12.50
2018-09-26T08:03:47.842Z,12.90
2018-09-26T08:08:42.811Z,12.70
2018-09-26T08:11:10.333Z,12.80
2018-09-26T08:13:37.825Z,12.90
2018-09-26T08:16:05.341Z,12.70
2018-09-26T08:18:32.889Z,12.70
2018-09-26T08:23:27.895Z,13.90
2018-09-26T08:25:55.376Z,13.80
2018-09-26T08:30:50.318Z,14.30
2018-09-26T08:33:17.941Z,14.10
2018-09-26T08:35:45.401Z,14.30
2018-09-26T08:38:12.938Z,14.30
2018-09-26T08:43:07.791Z,15.00
2018-09-26T08:45:35.281Z,14.80
2018-09-26T08:50:30.159Z,15.10
2018-09-26T08:52:57.718Z,15.40
2018-09-26T08:55:25.248Z,15.90
2018-09-26T08:57:52.761Z,15.80
2018-09-26T09:00:26.016Z,15.80
2018-09-26T09:02:53.463Z,16.10
2018-09-26T09:15:11.660Z,17.30
2018-09-26T09:22:33.969Z,18.70
2018-09-26T09:29:56.295Z,18.90
2018-09-26T09:34:51.175Z,19.60
2018-09-26T09:39:46.178Z,19.50
2018-09-26T09:44:41.166Z,20.00
2018-09-26T09:52:03.488Z,20.50
2018-09-26T09:54:30.966Z,19.90
2018-09-26T09:56:58.453Z,20.50
2018-09-26T10:04:20.897Z,21.00
2018-09-26T10:11:43.312Z,21.50
2018-09-26T10:14:10.888Z,21.50
2018-09-26T10:19:05.861Z,21.20
2018-09-26T10:21:33.264Z,20.30
2018-09-26T10:24:01.236Z,20.60
2018-09-26T10:28:56.156Z,19.70
2018-09-26T10:31:23.626Z,19.90
2018-09-26T10:36:18.625Z,19.60
2018-09-26T10:38:46.229Z,19.90
2018-09-26T10:41:13.793Z,21.10
2018-09-26T10:48:36.933Z,21.70
2018-09-26T10:51:05.788Z,22.10
2018-09-26T10:56:00.592Z,22.00
2018-09-26T11:00:55.694Z,20.90
2018-09-26T11:03:23.253Z,21.10
2018-09-26T11:05:50.709Z,21.30
2018-09-26T11:20:36.542Z,19.60
2018-09-26T11:23:04.024Z,19.50
2018-09-26T11:30:27.451Z,19.90
2018-09-26T11:32:54.890Z,20.00
2018-09-26T11:35:22.498Z,20.00
2018-09-26T11:40:17.513Z,20.00
2018-09-26T11:42:45.001Z,19.90
2018-09-26T11:45:12.552Z,19.60
2018-09-26T11:47:40.171Z,19.70
2018-09-26T11:50:07.793Z,19.50
2018-09-26T11:52:35.380Z,19.40
2018-09-26T11:55:03.071Z,19.40
2018-09-26T12:04:30.273Z,19.10
2018-09-26T12:06:57.868Z,19.10
2018-09-26T12:11:53.240Z,19.30
2018-09-26T12:14:20.673Z,19.40
2018-09-26T12:16:48.105Z,19.50
2018-09-26T12:19:15.565Z,19.80
2018-09-26T12:21:43.077Z,19.80
2018-09-26T12:24:10.501Z,19.70
2018-09-26T12:26:38.026Z,19.70
2018-09-26T12:29:05.503Z,19.50
2018-09-26T12:31:33.107Z,19.40
2018-09-26T12:34:00.640Z,19.40
2018-09-26T12:36:28.269Z,19.70
2018-09-26T12:38:55.644Z,19.80
2018-09-26T12:41:23.085Z,19.90
2018-09-26T12:43:50.568Z,19.70
2018-09-26T12:46:18.048Z,19.60
2018-09-26T12:48:45.417Z,19.70
2018-09-26T12:51:12.843Z,19.70
2018-09-26T12:56:07.862Z,19.70
2018-09-26T12:58:36.234Z,19.70
2018-09-26T13:01:03.930Z,19.80
2018-09-26T13:03:31.491Z,20.00
2018-09-26T13:05:59.505Z,20.30
2018-09-26T13:08:27.230Z,20.30
2018-09-26T13:10:54.550Z,20.10
2018-09-26T13:15:49.440Z,19.70
2018-09-26T13:18:16.907Z,19.60
2018-09-26T13:20:45.861Z,19.30
2018-09-26T13:23:13.392Z,19.20
2018-09-26T13:25:41.479Z,19.20
2018-09-26T13:28:08.973Z,18.90
2018-09-26T13:30:36.753Z,19.00
2018-09-26T13:33:04.463Z,19.10
2018-09-26T13:35:31.931Z,19.30
2018-09-26T13:40:28.141Z,19.40
2018-09-26T13:42:55.579Z,19.30
2018-09-26T13:47:50.453Z,19.10
2018-09-26T13:50:18.290Z,18.90
2018-09-26T13:52:45.913Z,19.00
2018-09-26T13:55:13.468Z,19.10
2018-09-26T13:57:41.084Z,19.50
2018-09-26T14:00:08.902Z,19.40
2018-09-26T14:02:36.651Z,19.50
2018-09-26T14:05:05.403Z,19.50
2018-09-26T14:07:33.281Z,19.50
2018-09-26T14:10:01.465Z,19.50
2018-09-26T14:14:57.316Z,20.10
2018-09-26T14:17:24.847Z,20.50
2018-09-26T14:19:52.384Z,21.40
2018-09-26T14:29:48.917Z,23.30
2018-09-26T14:32:16.603Z,23.60
2018-09-26T14:34:45.212Z,23.90
2018-09-26T14:37:12.869Z,23.50
2018-09-26T14:39:40.485Z,22.90
2018-09-26T14:42:09.104Z,22.40
2018-09-26T14:47:04.585Z,21.70
2018-09-26T14:52:00.030Z,21.10
2018-09-26T14:54:27.845Z,20.70
2018-09-26T14:56:56.170Z,20.40
2018-09-26T14:59:23.692Z,19.60
2018-09-26T15:01:51.247Z,19.30
2018-09-26T15:04:19.695Z,19.00
2018-09-26T15:06:47.133Z,18.80
2018-09-26T15:09:14.759Z,18.70
2018-09-26T15:11:43.401Z,18.50
2018-09-26T15:14:11.208Z,18.60
2018-09-26T15:16:39.692Z,18.60
2018-09-26T15:19:07.365Z,18.30
2018-09-26T15:21:36.367Z,18.20
2018-09-26T15:24:04.572Z,18.10
2018-09-26T15:29:00.486Z,18.00
2018-09-26T15:31:28.645Z,17.90
2018-09-26T15:33:57.033Z,17.90
2018-09-26T15:36:24.492Z,17.90
2018-09-26T15:38:51.962Z,17.80
2018-09-26T15:41:19.447Z,17.60
2018-09-26T15:43:46.949Z,17.50
2018-09-26T15:46:14.882Z,17.50
2018-09-26T15:48:42.439Z,17.40
2018-09-26T15:51:12.593Z,17.50
2018-09-26T15:53:41.106Z,17.40
2018-09-26T15:56:09.425Z,17.40
2018-09-26T15:58:38.013Z,17.40
2018-09-26T16:01:06.822Z,17.40
2018-09-26T16:03:34.387Z,17.40
2018-09-26T16:06:01.962Z,17.30
2018-09-26T16:08:29.762Z,17.20
2018-09-26T16:10:57.524Z,17.20
2018-09-26T16:13:25.514Z,17.20
2018-09-26T16:15:57.062Z,17.10
2018-09-26T16:18:24.489Z,17.00
2018-09-26T16:20:51.961Z,17.00
2018-09-26T16:23:20.969Z,16.90
2018-09-26T16:28:16.048Z,16.90
2018-09-26T16:30:43.520Z,16.80
2018-09-26T16:35:38.494Z,16.80
2018-09-26T16:38:06.388Z,16.80
2018-09-26T16:40:33.950Z,16.80
2018-09-26T16:43:01.633Z,16.80
2018-09-26T16:45:29.060Z,16.60
2018-09-26T16:47:56.582Z,16.50
2018-09-26T16:50:24.048Z,16.30
2018-09-26T16:52:51.529Z,16.30
2018-09-26T16:55:18.964Z,16.20
2018-09-26T17:00:13.917Z,16.20
2018-09-26T17:02:41.343Z,16.10
2018-09-26T17:05:08.805Z,16.00
2018-09-26T17:07:36.408Z,15.90
2018-09-26T17:10:03.885Z,15.90
2018-09-26T17:12:31.320Z,15.80
2018-09-26T17:14:58.962Z,15.80
2018-09-26T17:17:26.585Z,15.70
2018-09-26T17:19:54.994Z,15.80
2018-09-26T17:22:22.676Z,15.80
2018-09-26T17:24:50.121Z,15.80
2018-09-26T17:27:18.126Z,15.90
2018-09-26T17:29:45.651Z,15.80
2018-09-26T17:32:13.175Z,15.70
2018-09-26T17:34:40.906Z,15.50
2018-09-26T17:37:08.348Z,15.50
2018-09-26T17:39:36.008Z,15.50
2018-09-26T17:42:03.555Z,15.30
2018-09-26T17:44:31.122Z,15.20
2018-09-26T17:49:25.957Z,15.20
2018-09-26T17:51:53.620Z,15.10
2018-09-26T17:56:48.688Z,15.00
2018-09-26T17:59:16.400Z,14.90
2018-09-26T18:01:43.940Z,14.80
2018-09-26T18:06:38.887Z,14.70
2018-09-26T18:09:09.413Z,14.70
2018-09-26T18:11:36.896Z,14.70
2018-09-26T18:14:04.752Z,14.60
2018-09-26T18:16:32.309Z,14.60
2018-09-26T18:19:00.019Z,14.60
2018-09-26T18:21:27.496Z,14.60
2018-09-26T18:23:56.548Z,14.50
2018-09-26T18:26:24.089Z,14.70
2018-09-26T18:28:52.127Z,14.50
2018-09-26T18:31:19.908Z,14.40
2018-09-26T18:33:47.681Z,14.40
2018-09-26T18:36:15.687Z,14.30
2018-09-26T18:38:43.417Z,14.40
2018-09-26T18:41:10.984Z,14.40
2018-09-26T18:43:38.588Z,14.40
2018-09-26T18:46:06.303Z,14.30
2018-09-26T18:48:33.784Z,14.30
2018-09-26T18:51:01.574Z,14.20
2018-09-26T18:53:29.185Z,14.10
2018-09-26T18:55:56.722Z,14.10
2018-09-26T18:58:24.245Z,14.10
2018-09-26T19:00:51.772Z,14.20
2018-09-26T19:03:19.360Z,14.10
2018-09-26T19:05:46.922Z,14.10
2018-09-26T19:13:11.272Z,14.00
2018-09-26T19:15:38.802Z,13.90
2018-09-26T19:18:06.388Z,13.90
2018-09-26T19:20:33.887Z,13.80
2018-09-26T19:23:01.462Z,13.90
2018-09-26T19:25:28.911Z,13.80
2018-09-26T19:27:56.481Z,13.80
2018-09-26T19:30:24.756Z,13.90
2018-09-26T19:32:53.367Z,13.80
2018-09-26T19:35:21.560Z,13.80
2018-09-26T19:37:49.294Z,13.70
2018-09-26T19:42:46.351Z,13.80
2018-09-26T19:45:14.069Z,13.80
2018-09-26T19:50:09.752Z,13.70
2018-09-26T19:52:37.392Z,13.70
2018-09-26T19:55:04.876Z,13.70
2018-09-26T19:57:36.440Z,13.60
2018-09-26T20:00:04.760Z,13.50
2018-09-26T20:02:32.258Z,13.40
2018-09-26T20:07:28.114Z,13.30
2018-09-26T20:09:56.877Z,13.40
2018-09-26T20:12:24.644Z,13.30
2018-09-26T20:14:52.963Z,13.30
2018-09-26T20:17:21.853Z,13.20
2018-09-26T20:19:49.393Z,13.20
2018-09-26T20:22:20.886Z,13.30
2018-09-26T20:27:20.951Z,13.20
2018-09-26T20:29:48.630Z,13.20
2018-09-26T20:32:16.364Z,13.20
2018-09-26T20:34:44.073Z,13.20
2018-09-26T20:37:11.921Z,13.10
2018-09-26T20:39:39.570Z,13.20
2018-09-26T20:42:08.193Z,13.20
2018-09-26T20:44:35.808Z,13.10
2018-09-26T20:47:05.753Z,13.10
2018-09-26T20:49:36.458Z,13.30
2018-09-26T20:52:04.030Z,13.40
2018-09-26T20:57:00.207Z,13.20
2018-09-26T20:59:27.809Z,13.20
2018-09-26T21:01:55.362Z,13.30
2018-09-26T21:04:23.032Z,13.20
2018-09-26T21:09:18.224Z,13.00
2018-09-26T21:11:45.698Z,13.10
2018-09-26T21:16:40.588Z,13.10
2018-09-26T21:19:08.217Z,12.90
2018-09-26T21:21:35.826Z,12.80
2018-09-26T21:24:03.529Z,13.00
2018-09-26T21:28:58.503Z,12.80
2018-09-26T21:31:26.202Z,12.90
2018-09-26T21:36:21.579Z,12.80
2018-09-26T21:38:49.089Z,12.80
2018-09-26T21:41:16.808Z,12.80
2018-09-26T21:43:44.288Z,12.90
2018-09-26T21:46:11.948Z,12.80
2018-09-26T21:48:39.576Z,12.80
2018-09-26T21:51:09.516Z,12.80
2018-09-26T21:53:38.409Z,12.70
2018-09-26T21:56:06.265Z,12.70
2018-09-26T21:58:34.141Z,12.60
2018-09-26T22:01:03.705Z,12.60
2018-09-26T22:03:31.861Z,12.70
2018-09-26T22:05:59.467Z,12.70
2018-09-26T22:08:27.193Z,12.70
2018-09-26T22:10:54.924Z,12.80
2018-09-26T22:13:22.748Z,12.80
2018-09-26T22:15:50.520Z,12.60
2018-09-26T22:18:18.099Z,12.40
2018-09-26T22:20:45.762Z,12.30
2018-09-26T22:23:13.550Z,12.40
2018-09-26T22:25:41.225Z,12.40
2018-09-26T22:28:08.838Z,12.50
2018-09-26T22:30:36.422Z,12.40
2018-09-26T22:33:04.065Z,12.40
2018-09-26T22:35:31.630Z,12.40
2018-09-26T22:37:59.261Z,12.30
2018-09-26T22:40:26.778Z,12.30
2018-09-26T22:42:54.343Z,12.20
2018-09-26T22:45:21.953Z,12.10
2018-09-26T22:47:49.491Z,12.10
2018-09-26T22:50:17.231Z,12.10
2018-09-26T22:52:44.839Z,12.30
2018-09-26T22:55:12.581Z,12.20
2018-09-26T22:57:40.204Z,12.10
2018-09-26T23:00:07.858Z,12.10
2018-09-26T23:02:35.467Z,12.10
2018-09-26T23:05:03.118Z,12.10
2018-09-26T23:12:25.802Z,12.10
2018-09-26T23:14:53.422Z,12.10
2018-09-26T23:17:20.968Z,12.10
2018-09-26T23:19:48.573Z,12.30
2018-09-26T23:22:16.211Z,12.10
2018-09-26T23:24:44.138Z,12.00
2018-09-26T23:27:11.742Z,11.90
2018-09-26T23:29:39.320Z,11.80
2018-09-26T23:32:06.937Z,12.00
2018-09-26T23:34:34.565Z,12.00
2018-09-26T23:37:02.183Z,12.00
2018-09-26T23:39:29.742Z,12.00
2018-09-26T23:41:57.334Z,11.80
2018-09-26T23:44:24.880Z,11.80
2018-09-26T23:46:52.444Z,11.80
2018-09-26T23:49:20.066Z,11.90
2018-09-26T23:51:47.664Z,11.90
2018-09-26T23:54:15.871Z,11.70
2018-09-26T23:56:43.457Z,11.70
2018-09-26T23:59:11.008Z,11.80
